createdAt,value
2018-07-30T00:00:36.913Z,89.93
2018-07-30T00:01:37.500Z,90.56
2018-07-30T00:02:38.088Z,91.24
2018-07-30T00:03:38.671Z,89.25
2018-07-30T00:04:39.257Z,90.36
2018-07-30T00:05:39.842Z,90.65
2018-07-30T00:06:40.427Z,90.61
2018-07-30T00:07:41.014Z,90.56
2018-07-30T00:08:41.602Z,90.46
2018-07-30T00:09:42.238Z,90.46
2018-07-30T00:10:42.820Z,90.32
2018-07-30T00:11:43.412Z,91.04
2018-07-30T00:12:43.998Z,91.96
2018-07-30T00:13:44.633Z,90.61
2018-07-30T00:14:45.215Z,90.80
2018-07-30T00:15:45.803Z,90.65
2018-07-30T00:16:46.390Z,90.32
2018-07-30T00:17:46.977Z,90.65
2018-07-30T00:18:47.569Z,91.04
2018-07-30T00:19:48.145Z,90.51
2018-07-30T00:20:48.781Z,90.36
2018-07-30T00:21:49.361Z,91.24
2018-07-30T00:22:49.948Z,90.99
2018-07-30T00:23:50.538Z,91.24
2018-07-30T00:24:51.125Z,91.09
2018-07-30T00:25:51.704Z,90.99
2018-07-30T00:26:52.295Z,91.67
2018-07-30T00:27:52.880Z,91.67
2018-07-30T00:28:53.511Z,91.77
2018-07-30T00:29:54.101Z,91.04
2018-07-30T00:30:54.688Z,91.72
2018-07-30T00:31:55.364Z,91.77
2018-07-30T00:32:55.953Z,90.99
2018-07-30T00:33:56.540Z,91.62
2018-07-30T00:34:57.130Z,93.41
2018-07-30T00:35:57.761Z,93.02
2018-07-30T00:36:58.352Z,93.46
2018-07-30T00:37:58.937Z,93.70
2018-07-30T00:38:59.524Z,93.22
2018-07-30T00:40:00.113Z,93.51
2018-07-30T00:41:00.694Z,91.48
2018-07-30T00:42:01.284Z,91.62
2018-07-30T00:43:01.867Z,91.24
2018-07-30T00:44:02.500Z,91.48
2018-07-30T00:45:03.089Z,91.28
2018-07-30T00:46:03.676Z,91.86
2018-07-30T00:47:04.310Z,91.86
2018-07-30T00:48:04.928Z,91.58
2018-07-30T00:49:05.532Z,91.77
2018-07-30T00:50:06.120Z,91.19
2018-07-30T00:51:06.751Z,91.09
2018-07-30T00:52:07.338Z,91.58
2018-07-30T00:53:07.926Z,91.77
2018-07-30T00:54:08.512Z,91.58
2018-07-30T00:55:09.109Z,91.58
2018-07-30T00:56:09.733Z,91.48
2018-07-30T00:57:10.319Z,91.38
2018-07-30T00:58:10.906Z,91.58
2018-07-30T00:59:11.543Z,91.86
2018-07-30T01:00:12.127Z,92.25
2018-07-30T01:01:12.717Z,92.74
2018-07-30T01:02:13.304Z,92.93
2018-07-30T01:04:15.562Z,92.54
2018-07-30T01:05:16.149Z,92.83
2018-07-30T01:06:16.779Z,92.54
2018-07-30T01:07:17.369Z,92.74
2018-07-30T01:08:17.950Z,92.35
2018-07-30T01:09:18.538Z,91.19
2018-07-30T01:10:19.126Z,92.35
2018-07-30T01:11:19.714Z,92.64
2018-07-30T01:12:20.301Z,91.77
2018-07-30T01:13:20.889Z,92.44
2018-07-30T01:14:21.538Z,93.22
2018-07-30T01:15:22.109Z,92.83
2018-07-30T01:16:22.695Z,93.60
2018-07-30T01:17:23.279Z,92.54
2018-07-30T01:18:23.860Z,93.60
2018-07-30T01:19:24.496Z,93.41
2018-07-30T01:20:25.084Z,92.64
2018-07-30T01:21:25.723Z,92.44
2018-07-30T01:22:26.305Z,93.51
2018-07-30T01:23:26.897Z,92.44
2018-07-30T01:24:27.478Z,92.83
2018-07-30T01:25:28.064Z,92.83
2018-07-30T01:26:28.703Z,92.64
2018-07-30T01:27:29.339Z,93.51
2018-07-30T01:28:29.923Z,93.70
2018-07-30T01:29:30.507Z,93.02
2018-07-30T01:30:31.094Z,92.44
2018-07-30T01:31:31.681Z,93.02
2018-07-30T01:32:32.268Z,93.41
2018-07-30T01:33:32.853Z,92.64
2018-07-30T01:34:33.440Z,92.74
2018-07-30T01:35:34.030Z,93.80
2018-07-30T01:36:34.606Z,93.41
2018-07-30T01:37:35.246Z,93.80
2018-07-30T01:38:35.830Z,93.60
2018-07-30T01:39:36.413Z,93.60
2018-07-30T01:40:36.998Z,93.60
2018-07-30T01:41:37.587Z,93.51
2018-07-30T01:42:38.177Z,94.09
2018-07-30T01:43:38.854Z,93.12
2018-07-30T01:44:39.452Z,92.64
2018-07-30T01:45:40.024Z,93.60
2018-07-30T01:46:40.607Z,93.90
2018-07-30T01:47:41.195Z,92.44
2018-07-30T01:48:41.781Z,92.44
2018-07-30T01:49:42.364Z,93.51
2018-07-30T01:50:42.946Z,92.93
2018-07-30T01:51:43.532Z,93.12
2018-07-30T01:52:44.111Z,93.70
2018-07-30T01:53:44.696Z,94.38
2018-07-30T01:54:45.335Z,94.57
2018-07-30T01:55:45.919Z,94.28
2018-07-30T01:56:46.552Z,94.28
2018-07-30T01:57:47.140Z,94.57
2018-07-30T01:58:47.729Z,94.48
2018-07-30T01:59:48.314Z,93.80
2018-07-30T02:00:48.896Z,93.02
2018-07-30T02:01:49.480Z,93.80
2018-07-30T02:02:50.069Z,93.60
2018-07-30T02:03:50.658Z,92.93
2018-07-30T02:04:51.294Z,93.80
2018-07-30T02:05:51.882Z,93.32
2018-07-30T02:06:52.466Z,93.90
2018-07-30T02:07:53.044Z,92.74
2018-07-30T02:08:53.632Z,93.41
2018-07-30T02:09:54.219Z,94.48
2018-07-30T02:10:54.809Z,93.51
2018-07-30T02:11:55.395Z,93.32
2018-07-30T02:12:55.980Z,93.70
2018-07-30T02:13:56.615Z,93.70
2018-07-30T02:14:57.201Z,94.28
2018-07-30T02:15:57.830Z,94.76
2018-07-30T02:16:58.416Z,95.64
2018-07-30T02:17:59.002Z,96.41
2018-07-30T02:18:59.591Z,96.70
2018-07-30T02:20:00.228Z,96.31
2018-07-30T02:21:00.815Z,96.80
2018-07-30T02:22:01.396Z,95.34
2018-07-30T02:23:01.986Z,95.34
2018-07-30T02:24:02.565Z,94.86
2018-07-30T02:25:03.154Z,95.64
2018-07-30T02:26:03.740Z,94.86
2018-07-30T02:27:04.375Z,95.44
2018-07-30T02:28:04.960Z,95.15
2018-07-30T02:29:05.547Z,95.15
2018-07-30T02:30:06.130Z,93.80
2018-07-30T02:31:06.809Z,93.60
2018-07-30T02:32:07.395Z,94.67
2018-07-30T02:33:07.981Z,94.28
2018-07-30T02:34:08.662Z,93.80
2018-07-30T02:35:09.249Z,93.70
2018-07-30T02:36:09.832Z,94.67
2018-07-30T02:37:10.413Z,95.06
2018-07-30T02:38:11.000Z,94.28
2018-07-30T02:39:11.637Z,93.90
2018-07-30T02:40:12.223Z,93.60
2018-07-30T02:41:12.809Z,94.48
2018-07-30T02:42:13.393Z,94.96
2018-07-30T02:43:13.975Z,93.90
2018-07-30T02:44:14.563Z,93.99
2018-07-30T02:45:15.146Z,94.96
2018-07-30T02:46:15.785Z,95.34
2018-07-30T02:47:16.369Z,94.48
2018-07-30T02:48:16.957Z,95.25
2018-07-30T02:49:17.587Z,94.86
2018-07-30T02:50:18.178Z,94.09
2018-07-30T02:51:18.761Z,94.48
2018-07-30T02:52:19.350Z,95.25
2018-07-30T02:53:19.937Z,94.96
2018-07-30T02:54:20.521Z,94.96
2018-07-30T02:55:21.110Z,95.34
2018-07-30T02:56:21.696Z,95.54
2018-07-30T02:57:22.329Z,94.09
2018-07-30T02:58:22.916Z,94.96
2018-07-30T02:59:23.538Z,95.54
2018-07-30T03:00:24.125Z,95.44
2018-07-30T03:01:24.810Z,95.54
2018-07-30T03:02:25.391Z,95.25
2018-07-30T03:03:25.980Z,94.57
2018-07-30T03:04:26.618Z,94.76
2018-07-30T03:05:27.206Z,94.86
2018-07-30T03:06:27.794Z,95.25
2018-07-30T03:07:28.374Z,94.76
2018-07-30T03:08:28.966Z,94.96
2018-07-30T03:09:29.595Z,95.25
2018-07-30T03:10:30.129Z,96.22
2018-07-30T03:11:30.713Z,95.73
2018-07-30T03:12:31.293Z,95.83
2018-07-30T03:13:31.881Z,95.64
2018-07-30T03:14:32.467Z,95.44
2018-07-30T03:15:33.048Z,95.34
2018-07-30T03:16:33.685Z,94.86
2018-07-30T03:17:34.266Z,96.51
2018-07-30T03:18:34.858Z,95.20
2018-07-30T03:19:35.446Z,94.91
2018-07-30T03:20:36.028Z,95.54
2018-07-30T03:21:36.766Z,94.57
2018-07-30T03:22:37.352Z,95.15
2018-07-30T03:23:37.935Z,95.54
2018-07-30T03:24:38.524Z,95.44
2018-07-30T03:25:39.112Z,95.25
2018-07-30T03:26:39.700Z,94.67
2018-07-30T03:27:40.285Z,94.57
2018-07-30T03:28:41.010Z,94.48
2018-07-30T03:29:41.508Z,94.57
2018-07-30T03:30:42.091Z,94.18
2018-07-30T03:31:42.724Z,93.95
2018-07-30T03:32:43.310Z,94.48
2018-07-30T03:33:43.894Z,94.82
2018-07-30T03:34:44.482Z,94.91
2018-07-30T03:35:45.112Z,95.25
2018-07-30T03:36:45.704Z,95.44
2018-07-30T03:37:46.284Z,94.96
2018-07-30T03:38:46.927Z,94.86
2018-07-30T03:39:47.507Z,94.76
2018-07-30T03:40:48.396Z,94.53
2018-07-30T03:41:48.981Z,95.01
2018-07-30T03:42:49.569Z,95.54
2018-07-30T03:43:50.156Z,95.15
2018-07-30T03:44:50.745Z,95.01
2018-07-30T03:45:51.324Z,94.96
2018-07-30T03:46:51.909Z,95.44
2018-07-30T03:47:52.501Z,95.68
2018-07-30T03:48:53.074Z,95.01
2018-07-30T03:49:53.659Z,94.62
2018-07-30T03:50:54.296Z,95.01
2018-07-30T03:51:54.877Z,94.67
2018-07-30T03:52:55.464Z,94.24
2018-07-30T03:53:56.047Z,95.10
2018-07-30T03:54:56.687Z,95.54
2018-07-30T03:55:57.267Z,94.96
2018-07-30T03:56:57.855Z,95.49
2018-07-30T03:57:58.518Z,95.20
2018-07-30T03:58:59.073Z,95.40
2018-07-30T03:59:59.665Z,94.53
2018-07-30T04:01:00.245Z,95.10
2018-07-30T04:02:00.831Z,94.82
2018-07-30T04:03:01.419Z,94.82
2018-07-30T04:04:02.008Z,95.49
2018-07-30T04:05:02.595Z,95.20
2018-07-30T04:06:03.218Z,95.68
2018-07-30T04:07:03.766Z,95.49
2018-07-30T04:08:04.355Z,94.76
2018-07-30T04:09:04.934Z,95.30
2018-07-30T04:10:05.570Z,94.72
2018-07-30T04:11:06.198Z,95.49
2018-07-30T04:12:06.839Z,94.72
2018-07-30T04:13:07.517Z,94.09
2018-07-30T04:14:08.102Z,94.82
2018-07-30T04:15:08.692Z,94.43
2018-07-30T04:16:09.280Z,94.82
2018-07-30T04:17:09.866Z,95.30
2018-07-30T04:18:10.451Z,94.91
2018-07-30T04:19:11.030Z,94.53
2018-07-30T04:20:11.618Z,95.30
2018-07-30T04:21:12.203Z,95.49
2018-07-30T04:22:12.848Z,94.91
2018-07-30T04:23:13.376Z,95.30
2018-07-30T04:24:13.961Z,95.20
2018-07-30T04:25:14.549Z,94.91
2018-07-30T04:26:15.185Z,94.72
2018-07-30T04:27:15.815Z,94.48
2018-07-30T04:28:16.400Z,94.33
2018-07-30T04:29:16.987Z,95.01
2018-07-30T04:30:17.573Z,95.98
2018-07-30T04:31:18.201Z,95.59
2018-07-30T04:32:18.837Z,95.59
2018-07-30T04:33:19.423Z,95.78
2018-07-30T04:34:20.009Z,95.30
2018-07-30T04:35:20.599Z,95.30
2018-07-30T04:36:21.235Z,95.49
2018-07-30T04:37:21.821Z,95.30
2018-07-30T04:38:22.409Z,95.59
2018-07-30T04:39:22.992Z,94.91
2018-07-30T04:40:23.577Z,94.72
2018-07-30T04:41:24.162Z,95.30
2018-07-30T04:42:24.744Z,94.72
2018-07-30T04:43:25.328Z,95.01
2018-07-30T04:44:25.962Z,95.20
2018-07-30T04:45:26.543Z,94.72
2018-07-30T04:46:27.179Z,95.40
2018-07-30T04:47:27.762Z,94.53
2018-07-30T04:48:28.351Z,95.40
2018-07-30T04:49:28.940Z,95.88
2018-07-30T04:50:29.568Z,96.56
2018-07-30T04:51:30.206Z,96.46
2018-07-30T04:52:30.788Z,95.98
2018-07-30T04:53:31.367Z,96.26
2018-07-30T04:54:31.955Z,95.59
2018-07-30T04:55:32.542Z,96.36
2018-07-30T04:56:33.122Z,96.17
2018-07-30T04:57:33.715Z,95.68
2018-07-30T04:58:34.297Z,96.17
2018-07-30T04:59:34.882Z,95.10
2018-07-30T05:00:35.515Z,95.49
2018-07-30T05:01:36.147Z,96.46
2018-07-30T05:02:36.783Z,96.17
2018-07-30T05:03:37.371Z,96.94
2018-07-30T05:04:37.957Z,96.56
2018-07-30T05:05:38.544Z,96.26
2018-07-30T05:06:39.182Z,94.91
2018-07-30T05:07:39.770Z,96.65
2018-07-30T05:08:40.399Z,96.94
2018-07-30T05:09:40.984Z,96.36
2018-07-30T05:10:41.571Z,96.36
2018-07-30T05:11:42.150Z,95.98
2018-07-30T05:12:42.740Z,95.98
2018-07-30T05:13:43.324Z,96.46
2018-07-30T05:14:43.906Z,96.46
2018-07-30T05:15:44.508Z,96.56
2018-07-30T05:16:45.128Z,95.68
2018-07-30T05:17:45.765Z,95.78
2018-07-30T05:18:46.351Z,95.40
2018-07-30T05:19:46.936Z,95.30
2018-07-30T05:20:47.571Z,95.40
2018-07-30T05:21:48.154Z,95.01
2018-07-30T05:22:48.740Z,96.94
2018-07-30T05:23:49.318Z,95.49
2018-07-30T05:24:49.901Z,95.10
2018-07-30T05:25:50.539Z,95.01
2018-07-30T05:26:51.122Z,95.59
2018-07-30T05:27:51.711Z,95.49
2018-07-30T05:28:52.338Z,95.49
2018-07-30T05:29:52.922Z,95.78
2018-07-30T05:30:53.563Z,95.88
2018-07-30T05:31:54.252Z,95.30
2018-07-30T05:32:54.934Z,95.88
2018-07-30T05:33:55.517Z,96.56
2018-07-30T05:34:56.107Z,95.40
2018-07-30T05:35:56.687Z,95.20
2018-07-30T05:36:57.274Z,95.59
2018-07-30T05:37:57.859Z,95.68
2018-07-30T05:38:58.442Z,95.20
2018-07-30T05:39:59.031Z,96.46
2018-07-30T05:40:59.618Z,96.36
2018-07-30T05:42:00.205Z,96.46
2018-07-30T05:43:00.790Z,96.36
2018-07-30T05:44:01.369Z,95.30
2018-07-30T05:45:01.959Z,95.78
2018-07-30T05:46:02.546Z,95.68
2018-07-30T05:47:03.179Z,96.75
2018-07-30T05:48:03.766Z,96.94
2018-07-30T05:49:04.400Z,97.23
2018-07-30T05:50:05.053Z,97.04
2018-07-30T05:51:05.572Z,96.36
2018-07-30T05:52:06.155Z,96.36
2018-07-30T05:53:06.742Z,95.30
2018-07-30T05:54:07.373Z,95.01
2018-07-30T05:55:07.958Z,95.40
2018-07-30T05:56:08.599Z,95.49
2018-07-30T05:57:09.175Z,95.68
2018-07-30T05:58:09.763Z,95.40
2018-07-30T05:59:10.345Z,95.49
2018-07-30T06:00:10.933Z,96.75
2018-07-30T06:01:11.522Z,96.26
2018-07-30T06:02:12.104Z,95.98
2018-07-30T06:03:12.742Z,96.65
2018-07-30T06:04:13.329Z,95.49
2018-07-30T06:05:13.966Z,95.68
2018-07-30T06:06:14.594Z,96.36
2018-07-30T06:07:15.183Z,95.98
2018-07-30T06:08:15.765Z,96.36
2018-07-30T06:09:16.354Z,96.46
2018-07-30T06:10:16.940Z,96.94
2018-07-30T06:11:17.522Z,97.42
2018-07-30T06:12:18.159Z,97.42
2018-07-30T06:13:18.746Z,95.40
2018-07-30T06:14:19.335Z,96.17
2018-07-30T06:15:19.921Z,96.36
2018-07-30T06:16:20.502Z,97.14
2018-07-30T06:17:21.094Z,96.65
2018-07-30T06:18:21.777Z,97.23
2018-07-30T06:19:22.363Z,96.84
2018-07-30T06:20:22.949Z,95.20
2018-07-30T06:21:23.537Z,95.59
2018-07-30T06:22:24.171Z,97.04
2018-07-30T06:23:24.759Z,96.65
2018-07-30T06:24:25.438Z,96.65
2018-07-30T06:25:26.029Z,97.23
2018-07-30T06:26:26.722Z,97.23
2018-07-30T06:27:27.322Z,96.56
2018-07-30T06:28:27.878Z,95.78
2018-07-30T06:29:28.461Z,95.68
2018-07-30T06:30:29.048Z,96.75
2018-07-30T06:31:29.636Z,96.75
2018-07-30T06:32:30.212Z,95.78
2018-07-30T06:33:30.797Z,96.94
2018-07-30T06:34:31.386Z,96.46
2018-07-30T06:35:32.017Z,97.42
2018-07-30T06:36:32.605Z,96.84
2018-07-30T06:37:33.193Z,96.46
2018-07-30T06:38:33.847Z,97.42
2018-07-30T06:39:34.411Z,96.56
2018-07-30T06:40:35.001Z,96.84
2018-07-30T06:41:35.592Z,95.78
2018-07-30T06:42:36.179Z,95.68
2018-07-30T06:43:36.810Z,96.56
2018-07-30T06:44:37.396Z,96.46
2018-07-30T06:45:37.980Z,96.75
2018-07-30T06:46:38.567Z,96.65
2018-07-30T06:47:39.156Z,96.36
2018-07-30T06:48:39.737Z,96.75
2018-07-30T06:49:40.326Z,97.04
2018-07-30T06:50:40.915Z,97.42
2018-07-30T06:51:41.490Z,97.62
2018-07-30T06:52:42.080Z,97.23
2018-07-30T06:53:42.665Z,98.10
2018-07-30T06:54:43.248Z,97.33
2018-07-30T06:55:43.890Z,96.46
2018-07-30T06:56:44.522Z,97.62
2018-07-30T06:57:45.104Z,98.39
2018-07-30T06:58:45.729Z,96.36
2018-07-30T06:59:46.371Z,97.42
2018-07-30T07:00:46.956Z,96.84
2018-07-30T07:01:47.694Z,96.46
2018-07-30T07:02:48.280Z,96.36
2018-07-30T07:03:48.866Z,95.98
2018-07-30T07:04:49.454Z,96.94
2018-07-30T07:05:50.039Z,96.36
2018-07-30T07:06:50.628Z,96.46
2018-07-30T07:07:51.256Z,96.46
2018-07-30T07:08:51.846Z,97.33
2018-07-30T07:09:52.478Z,98.49
2018-07-30T07:10:53.072Z,98.88
2018-07-30T07:11:53.705Z,98.68
2018-07-30T07:12:54.291Z,97.52
2018-07-30T07:13:54.875Z,96.75
2018-07-30T07:14:55.513Z,96.65
2018-07-30T07:15:56.096Z,98.39
2018-07-30T07:16:56.732Z,99.36
2018-07-30T07:17:57.267Z,98.30
2018-07-30T07:18:57.903Z,98.30
2018-07-30T07:19:58.486Z,97.72
2018-07-30T07:20:59.062Z,96.75
2018-07-30T07:21:59.657Z,96.84
2018-07-30T07:23:00.237Z,98.78
2018-07-30T07:24:00.825Z,98.97
2018-07-30T07:25:01.459Z,98.10
2018-07-30T07:26:02.054Z,98.10
2018-07-30T07:27:02.651Z,97.33
2018-07-30T07:28:03.329Z,98.39
2018-07-30T07:29:03.803Z,98.20
2018-07-30T07:30:04.384Z,97.72
2018-07-30T07:31:04.967Z,96.94
2018-07-30T07:32:05.552Z,98.30
2018-07-30T07:33:06.143Z,97.33
2018-07-30T07:34:06.771Z,98.10
2018-07-30T07:35:07.357Z,97.62
2018-07-30T07:36:07.941Z,98.97
2018-07-30T07:37:08.531Z,97.52
2018-07-30T07:38:09.169Z,97.91
2018-07-30T07:39:09.805Z,97.52
2018-07-30T07:40:10.407Z,97.52
2018-07-30T07:41:10.971Z,97.23
2018-07-30T07:42:11.556Z,98.68
2018-07-30T07:43:12.190Z,97.72
2018-07-30T07:44:12.775Z,98.20
2018-07-30T07:45:13.358Z,98.49
2018-07-30T07:46:13.940Z,97.33
2018-07-30T07:47:14.530Z,97.62
2018-07-30T07:48:15.163Z,97.52
2018-07-30T07:49:15.702Z,96.84
2018-07-30T07:50:16.494Z,95.20
2018-07-30T07:51:16.871Z,95.49
2018-07-30T07:52:17.451Z,95.10
2018-07-30T07:53:18.089Z,96.36
2018-07-30T07:54:18.672Z,97.23
2018-07-30T07:55:19.260Z,96.84
2018-07-30T07:56:19.846Z,98.20
2018-07-30T07:57:20.434Z,96.84
2018-07-30T07:58:21.063Z,97.52
2018-07-30T07:59:21.646Z,97.52
2018-07-30T08:00:22.231Z,96.65
2018-07-30T08:01:22.867Z,96.84
2018-07-30T08:02:23.447Z,95.98
2018-07-30T08:03:24.036Z,95.49
2018-07-30T08:04:24.623Z,96.07
2018-07-30T08:05:25.203Z,97.23
2018-07-30T08:06:25.789Z,97.33
2018-07-30T08:07:26.379Z,97.62
2018-07-30T08:08:26.960Z,96.84
2018-07-30T08:09:27.543Z,96.36
2018-07-30T08:10:28.180Z,96.36
2018-07-30T08:11:28.766Z,97.04
2018-07-30T08:12:29.352Z,97.52
2018-07-30T08:13:29.935Z,96.36
2018-07-30T08:14:30.522Z,96.36
2018-07-30T08:15:31.106Z,95.30
2018-07-30T08:16:31.689Z,94.82
2018-07-30T08:17:32.473Z,96.26
2018-07-30T08:18:33.113Z,96.75
2018-07-30T08:19:33.695Z,97.62
2018-07-30T08:20:34.285Z,97.52
2018-07-30T08:21:34.922Z,97.33
2018-07-30T08:22:35.510Z,96.46
2018-07-30T08:23:36.091Z,96.36
2018-07-30T08:24:36.679Z,96.75
2018-07-30T08:25:37.266Z,97.33
2018-07-30T08:26:37.852Z,97.52
2018-07-30T08:27:38.439Z,97.42
2018-07-30T08:28:39.024Z,98.39
2018-07-30T08:29:39.697Z,98.00
2018-07-30T08:30:40.246Z,97.81
2018-07-30T08:31:40.875Z,95.73
2018-07-30T08:32:41.468Z,95.01
2018-07-30T08:33:42.098Z,94.91
2018-07-30T08:34:42.679Z,93.27
2018-07-30T08:35:43.268Z,94.82
2018-07-30T08:36:43.906Z,95.73
2018-07-30T08:37:44.498Z,97.42
2018-07-30T08:38:45.075Z,97.57
2018-07-30T08:39:45.665Z,95.10
2018-07-30T08:40:46.249Z,93.95
2018-07-30T08:41:46.831Z,92.59
2018-07-30T08:42:47.420Z,92.69
2018-07-30T08:43:48.007Z,92.35
2018-07-30T08:44:48.596Z,92.21
2018-07-30T08:45:49.224Z,92.30
2018-07-30T08:46:49.813Z,93.46
2018-07-30T08:47:50.446Z,92.44
2018-07-30T08:48:51.092Z,93.12
2018-07-30T08:49:51.617Z,93.32
2018-07-30T08:50:52.201Z,94.28
2018-07-30T08:51:52.831Z,95.49
2018-07-30T08:52:53.471Z,92.93
2018-07-30T08:53:54.146Z,92.25
2018-07-30T08:54:54.735Z,92.74
2018-07-30T08:55:55.317Z,92.44
2018-07-30T08:56:55.911Z,92.30
2018-07-30T08:57:56.491Z,93.51
2018-07-30T08:58:57.076Z,95.34
2018-07-30T08:59:57.662Z,93.51
2018-07-30T09:00:58.249Z,94.48
2018-07-30T09:01:58.836Z,95.64
2018-07-30T09:02:59.425Z,96.22
2018-07-30T09:04:00.008Z,97.28
2018-07-30T09:05:00.687Z,97.47
2018-07-30T09:06:01.269Z,98.35
2018-07-30T09:07:01.883Z,98.25
2018-07-30T09:08:02.485Z,98.44
2018-07-30T09:09:03.076Z,99.02
2018-07-30T09:10:03.712Z,99.60
2018-07-30T09:11:04.348Z,99.02
2018-07-30T09:12:04.931Z,99.60
2018-07-30T09:13:05.514Z,99.21
2018-07-30T09:14:06.097Z,99.31
2018-07-30T09:15:06.683Z,99.02
2018-07-30T09:16:07.267Z,99.51
2018-07-30T09:17:07.960Z,99.21
2018-07-30T09:18:08.537Z,99.51
2018-07-30T09:19:09.076Z,99.31
2018-07-30T09:20:09.727Z,94.86
2018-07-30T09:21:10.258Z,93.60
2018-07-30T09:22:10.850Z,95.49
2018-07-30T09:23:11.441Z,96.07
2018-07-30T09:24:12.033Z,97.62
2018-07-30T09:25:12.662Z,97.62
2018-07-30T09:26:13.214Z,97.42
2018-07-30T09:27:13.857Z,97.42
2018-07-30T09:28:14.494Z,97.81
2018-07-30T09:29:15.085Z,97.62
2018-07-30T09:30:15.669Z,97.72
2018-07-30T09:31:16.314Z,97.42
2018-07-30T09:32:16.907Z,97.13
2018-07-30T09:33:17.495Z,96.65
2018-07-30T09:34:18.089Z,96.75
2018-07-30T09:35:18.680Z,96.65
2018-07-30T09:36:19.272Z,95.29
2018-07-30T09:37:19.862Z,94.43
2018-07-30T09:38:20.452Z,93.26
2018-07-30T09:39:21.092Z,95.20
2018-07-30T09:40:21.633Z,95.29
2018-07-30T09:41:22.226Z,95.39
2018-07-30T09:42:22.819Z,95.49
2018-07-30T09:43:23.459Z,95.49
2018-07-30T09:44:24.059Z,95.01
2018-07-30T09:45:24.688Z,95.59
2018-07-30T09:46:25.314Z,95.01
2018-07-30T09:47:27.560Z,89.88
2018-07-30T09:48:28.151Z,93.85
2018-07-30T09:49:28.747Z,94.13
2018-07-30T09:50:29.356Z,94.33
2018-07-30T09:51:29.977Z,91.82
2018-07-30T09:52:30.560Z,93.36
2018-07-30T09:53:31.203Z,94.71
2018-07-30T09:54:31.792Z,95.01
2018-07-30T09:55:32.384Z,94.91
2018-07-30T09:56:32.969Z,94.13
2018-07-30T09:57:38.610Z,92.30
2018-07-30T09:58:39.219Z,89.20
2018-07-30T09:59:40.590Z,90.36
2018-07-30T10:00:41.182Z,93.26
2018-07-30T10:01:41.820Z,92.49
2018-07-30T10:02:42.412Z,92.49
2018-07-30T10:03:43.005Z,92.30
2018-07-30T10:04:43.597Z,90.75
2018-07-30T10:05:44.234Z,92.20
2018-07-30T10:06:45.723Z,91.72
2018-07-30T10:07:46.313Z,91.24
2018-07-30T10:08:46.905Z,91.52
2018-07-30T10:09:47.496Z,90.31
2018-07-30T10:10:48.078Z,90.36
2018-07-30T10:11:48.755Z,91.76
2018-07-30T10:12:49.304Z,92.34
2018-07-30T10:13:49.897Z,91.76
2018-07-30T10:14:50.490Z,92.44
2018-07-30T10:15:51.080Z,91.08
2018-07-30T10:16:51.722Z,91.47
2018-07-30T10:17:52.361Z,91.47
2018-07-30T10:18:52.904Z,91.24
2018-07-30T10:19:53.493Z,91.66
2018-07-30T10:20:54.085Z,91.18
2018-07-30T10:21:54.671Z,90.12
2018-07-30T10:22:55.264Z,90.99
2018-07-30T10:23:55.855Z,91.18
2018-07-30T10:24:56.495Z,91.56
2018-07-30T10:25:58.032Z,91.56
2018-07-30T10:26:58.619Z,91.86
2018-07-30T10:28:48.781Z,91.18
2018-07-30T10:29:49.414Z,91.08
2018-07-30T10:30:50.054Z,90.80
2018-07-30T10:31:50.597Z,90.70
2018-07-30T10:32:51.238Z,90.89
2018-07-30T10:33:51.829Z,90.80
2018-07-30T10:34:52.473Z,88.76
2018-07-30T10:35:53.064Z,90.60
2018-07-30T10:36:58.803Z,89.83
2018-07-30T10:37:59.405Z,89.92
2018-07-30T10:39:00.040Z,90.50
2018-07-30T10:40:00.626Z,90.31
2018-07-30T10:41:01.217Z,90.12
2018-07-30T10:42:01.812Z,89.92
2018-07-30T10:43:02.395Z,89.83
2018-07-30T10:44:03.034Z,89.77
2018-07-30T10:45:03.679Z,89.92
2018-07-30T10:46:04.270Z,89.15
2018-07-30T10:47:04.858Z,89.63
2018-07-30T10:48:05.453Z,87.31
2018-07-30T10:49:06.048Z,89.63
2018-07-30T10:50:06.637Z,89.29
2018-07-30T10:51:07.228Z,89.44
2018-07-30T10:52:07.824Z,89.44
2018-07-30T10:53:08.458Z,89.39
2018-07-30T10:54:09.050Z,89.39
2018-07-30T10:55:09.692Z,88.90
2018-07-30T10:56:10.283Z,89.39
2018-07-30T10:57:10.928Z,89.15
2018-07-30T10:58:11.571Z,89.15
2018-07-30T10:59:12.214Z,89.25
2018-07-30T11:00:12.811Z,89.48
2018-07-30T11:01:13.405Z,89.09
2018-07-30T11:02:14.049Z,89.39
2018-07-30T11:03:14.646Z,89.09
2018-07-30T11:04:15.286Z,89.29
2018-07-30T11:05:15.881Z,89.29
2018-07-30T11:06:16.538Z,89.29
2018-07-30T11:07:17.165Z,89.19
2018-07-30T11:08:17.765Z,89.39
2018-07-30T11:09:18.358Z,89.09
2018-07-30T11:10:18.952Z,89.29
2018-07-30T11:11:19.540Z,89.19
2018-07-30T11:12:20.141Z,89.09
2018-07-30T11:13:20.736Z,89.39
2018-07-30T11:14:21.325Z,89.29
2018-07-30T11:15:21.968Z,88.61
2018-07-30T11:16:22.570Z,88.65
2018-07-30T11:17:23.210Z,88.27
2018-07-30T11:18:23.805Z,88.85
2018-07-30T11:19:24.423Z,89.14
2018-07-30T11:20:25.037Z,88.46
2018-07-30T11:21:25.682Z,88.17
2018-07-30T11:22:26.327Z,88.07
2018-07-30T11:23:26.920Z,86.82
2018-07-30T11:24:27.514Z,87.59
2018-07-30T11:25:28.173Z,87.49
2018-07-30T11:26:28.755Z,87.73
2018-07-30T11:27:29.352Z,87.63
2018-07-30T11:28:29.994Z,87.34
2018-07-30T11:29:30.589Z,87.15
2018-07-30T11:30:31.229Z,86.95
2018-07-30T11:31:31.926Z,87.44
2018-07-30T11:32:32.537Z,87.24
2018-07-30T11:33:33.132Z,86.76
2018-07-30T11:34:33.804Z,86.86
2018-07-30T11:35:34.451Z,86.80
2018-07-30T11:36:35.044Z,86.99
2018-07-30T11:37:35.643Z,86.66
2018-07-30T11:38:36.238Z,86.71
2018-07-30T11:39:36.830Z,86.41
2018-07-30T11:40:37.429Z,86.71
2018-07-30T11:41:38.020Z,86.71
2018-07-30T11:42:38.618Z,86.51
2018-07-30T11:43:39.275Z,86.61
2018-07-30T11:44:39.807Z,86.71
2018-07-30T11:45:40.401Z,86.32
2018-07-30T11:46:41.197Z,86.61
2018-07-30T11:47:41.791Z,86.41
2018-07-30T11:48:42.407Z,86.32
2018-07-30T11:49:43.059Z,85.83
2018-07-30T11:50:43.622Z,86.22
2018-07-30T11:51:44.215Z,86.51
2018-07-30T11:52:44.809Z,86.22
2018-07-30T11:53:45.474Z,86.02
2018-07-30T11:55:47.646Z,86.02
2018-07-30T11:56:48.239Z,85.83
2018-07-30T11:57:48.835Z,86.46
2018-07-30T11:58:49.424Z,86.46
2018-07-30T11:59:50.019Z,85.78
2018-07-30T12:00:50.616Z,85.58
2018-07-30T12:01:51.286Z,85.68
2018-07-30T12:02:51.808Z,84.81
2018-07-30T12:03:52.402Z,84.85
2018-07-30T12:04:53.051Z,84.27
2018-07-30T12:05:53.642Z,84.07
2018-07-30T12:06:54.238Z,83.92
2018-07-30T12:07:54.830Z,83.53
2018-07-30T12:08:55.543Z,83.63
2018-07-30T12:09:56.234Z,82.95
2018-07-30T12:10:56.825Z,82.75
2018-07-30T12:11:57.414Z,82.65
2018-07-30T12:12:58.020Z,82.85
2018-07-30T12:13:58.607Z,82.60
2018-07-30T12:14:59.258Z,82.21
2018-07-30T12:15:59.853Z,81.92
2018-07-30T12:17:00.459Z,81.92
2018-07-30T12:18:01.047Z,81.43
2018-07-30T12:19:01.641Z,81.09
2018-07-30T12:20:02.239Z,80.99
2018-07-30T12:21:02.831Z,80.69
2018-07-30T12:22:03.427Z,80.79
2018-07-30T12:23:04.070Z,80.50
2018-07-30T12:24:04.711Z,80.21
2018-07-30T12:25:05.319Z,80.15
2018-07-30T12:26:05.912Z,79.96
2018-07-30T12:27:06.528Z,80.35
2018-07-30T12:28:07.113Z,79.86
2018-07-30T12:29:07.705Z,79.28
2018-07-30T12:30:08.390Z,79.12
2018-07-30T12:31:09.007Z,79.22
2018-07-30T12:32:09.605Z,79.02
2018-07-30T12:33:10.206Z,78.73
2018-07-30T12:34:10.799Z,78.34
2018-07-30T12:35:11.401Z,78.53
2018-07-30T12:36:12.053Z,78.28
2018-07-30T12:37:12.595Z,77.80
2018-07-30T12:38:13.200Z,77.80
2018-07-30T12:39:13.849Z,77.99
2018-07-30T12:40:14.449Z,77.60
2018-07-30T12:41:15.106Z,77.83
2018-07-30T12:42:15.698Z,76.76
2018-07-30T12:43:16.361Z,77.15
2018-07-30T12:44:16.944Z,77.25
2018-07-30T12:45:17.550Z,76.70
2018-07-30T12:46:18.155Z,76.41
2018-07-30T12:47:18.800Z,76.90
2018-07-30T12:48:19.402Z,76.67
2018-07-30T12:49:19.999Z,76.80
2018-07-30T12:51:22.233Z,76.31
2018-07-30T12:52:22.855Z,76.25
2018-07-30T12:53:23.434Z,75.67
2018-07-30T12:54:24.085Z,75.47
2018-07-30T12:55:24.680Z,75.37
2018-07-30T12:56:25.329Z,75.18
2018-07-30T12:57:25.933Z,74.98
2018-07-30T12:58:26.536Z,75.18
2018-07-30T12:59:27.138Z,75.08
2018-07-30T13:00:27.780Z,74.83
2018-07-30T13:02:44.252Z,74.54
2018-07-30T13:03:44.798Z,74.05
2018-07-30T13:04:45.398Z,74.08
2018-07-30T13:05:46.002Z,73.60